Time;durP1;ratioP1;P1;durP2;ratioP2;P2;SDS_P1;SDS_P2;PMS_P1;PMS_P2;Temp;Humidity;BMP_temperature;BMP_pressure;BME280_temperature;BME280_humidity;BME280_pressure;Samples;Min_cycle;Max_cycle;Signal;HPM_P1;HPM_P2
2024/01/28 00:00:24;;;;;;;2.20;1.20;;;8.50;99.90;;;;;;5053944;28;20276;-70
2024/01/28 00:02:51;;;;;;;2.03;1.53;;;8.50;99.90;;;;;;5054039;28;20259;-69
2024/01/28 00:05:18;;;;;;;6.03;2.03;;;8.50;99.90;;;;;;5057371;28;20199;-68
2024/01/28 00:07:46;;;;;;;5.50;1.73;;;8.50;99.90;;;;;;5058736;28;20848;-70
2024/01/28 00:10:14;;;;;;;5.93;1.80;;;8.50;99.90;;;;;;5056389;28;20291;-70
2024/01/28 00:12:41;;;;;;;8.63;2.07;;;8.50;99.90;;;;;;5053133;28;20293;-70
2024/01/28 00:15:10;;;;;;;4.20;1.60;;;8.50;99.90;;;;;;5054312;28;20219;-69
2024/01/28 00:17:37;;;;;;;1.93;1.20;;;8.50;99.90;;;;;;5059215;28;20193;-69
2024/01/28 00:20:06;;;;;;;9.47;1.90;;;8.50;99.90;;;;;;5057699;28;20221;-69
2024/01/28 00:22:33;;;;;;;6.90;1.50;;;8.50;99.90;;;;;;5059234;28;20198;-69
2024/01/28 00:25:02;;;;;;;5.80;1.27;;;9.10;99.90;;;;;;5057370;28;20284;-69
2024/01/28 00:27:29;;;;;;;2.33;1.10;;;8.40;99.90;;;;;;5058899;28;20203;-70
2024/01/28 00:29:56;;;;;;;1.80;1.07;;;8.40;99.90;;;;;;5068052;28;20222;-70
2024/01/28 00:32:23;;;;;;;5.40;1.60;;;8.40;99.90;;;;;;5062484;28;20307;-70
2024/01/28 00:34:50;;;;;;;4.13;1.50;;;8.40;99.90;;;;;;5068271;28;20323;-69
2024/01/28 00:37:17;;;;;;;6.07;1.80;;;8.40;99.90;;;;;;5063895;28;20267;-70
2024/01/28 00:39:44;;;;;;;6.27;1.67;;;8.50;99.90;;;;;;5080196;28;20203;-70
2024/01/28 00:42:12;;;;;;;3.93;1.43;;;8.50;99.90;;;;;;5047810;28;20272;-69
2024/01/28 00:44:40;;;;;;;3.60;1.20;;;8.50;99.90;;;;;;5061210;28;20195;-70
2024/01/28 00:47:07;;;;;;;3.43;1.10;;;8.50;99.90;;;;;;5067033;28;20262;-70
2024/01/28 00:49:34;;;;;;;4.63;1.77;;;8.50;99.90;;;;;;5067885;28;20660;-70
2024/01/28 00:52:02;;;;;;;3.77;1.30;;;8.50;99.90;;;;;;5062839;28;20695;-70
2024/01/28 00:54:29;;;;;;;1.93;1.30;;;8.50;99.90;;;;;;5069308;28;20205;-70
2024/01/28 00:56:56;;;;;;;1.97;1.20;;;8.60;99.90;;;;;;5063800;28;20203;-69
2024/01/28 00:59:24;;;;;;;3.60;1.30;;;8.60;99.90;;;;;;5071600;28;20281;-69
2024/01/28 01:01:52;;;;;;;1.03;0.93;;;8.60;99.90;;;;;;5069860;28;20833;-68
2024/01/28 01:04:19;;;;;;;3.57;1.20;;;8.60;99.90;;;;;;5069563;28;20544;-67
2024/01/28 01:06:46;;;;;;;3.93;1.20;;;8.60;99.90;;;;;;5067624;28;20193;-67
2024/01/28 01:09:14;;;;;;;3.20;1.30;;;8.60;99.90;;;;;;5070493;28;20293;-68
2024/01/28 01:11:43;;;;;;;2.97;1.20;;;8.60;99.90;;;;;;5070483;28;20193;-69
2024/01/28 01:14:11;;;;;;;4.17;1.23;;;8.50;99.90;;;;;;5086510;28;20563;-69
2024/01/28 01:16:39;;;;;;;1.47;0.90;;;8.50;99.90;;;;;;5064585;28;20397;-69
2024/01/28 01:19:06;;;;;;;3.27;1.20;;;8.50;99.90;;;;;;5060783;28;20222;-69
2024/01/28 01:21:33;;;;;;;2.50;0.80;;;8.50;99.90;;;;;;5070427;28;20608;-69
2024/01/28 01:24:00;;;;;;;2.53;1.00;;;8.50;99.90;;;;;;5070846;28;20226;-69
2024/01/28 01:26:27;;;;;;;4.33;1.13;;;8.50;99.90;;;;;;5070394;28;20229;-68
2024/01/28 01:28:54;;;;;;;1.73;1.20;;;8.50;99.90;;;;;;5069787;28;20210;-68
2024/01/28 01:31:21;;;;;;;1.20;1.07;;;8.50;99.90;;;;;;5069468;28;20203;-68
2024/01/28 01:33:50;;;;;;;3.63;1.40;;;8.50;99.90;;;;;;5071435;28;20266;-68
2024/01/28 01:36:17;;;;;;;3.50;1.33;;;8.50;99.90;;;;;;5070665;28;20689;-68
2024/01/28 01:38:44;;;;;;;1.60;1.07;;;8.50;99.90;;;;;;5069497;28;20280;-69
2024/01/28 01:41:11;;;;;;;2.40;1.10;;;8.50;99.90;;;;;;5070538;28;20215;-68
2024/01/28 01:43:38;;;;;;;1.33;1.07;;;8.50;99.90;;;;;;5059676;28;20294;-68
2024/01/28 01:46:08;;;;;;;1.20;1.00;;;8.50;99.90;;;;;;5069375;28;20293;-69
2024/01/28 01:48:35;;;;;;;3.83;1.20;;;8.50;99.90;;;;;;5069170;28;20874;-68
2024/01/28 01:51:06;;;;;;;1.40;1.10;;;8.50;99.90;;;;;;5069033;28;20576;-68
2024/01/28 01:53:34;;;;;;;1.97;1.03;;;8.50;99.90;;;;;;5071381;28;20306;-68
2024/01/28 01:56:02;;;;;;;4.37;1.37;;;8.50;99.90;;;;;;5069847;28;20275;-69
2024/01/28 01:58:29;;;;;;;8.73;1.90;;;8.50;99.90;;;;;;5070154;28;20837;-67
2024/01/28 02:00:56;;;;;;;4.33;1.50;;;8.50;99.90;;;;;;5070428;28;20291;-68
2024/01/28 02:03:25;;;;;;;1.30;1.20;;;8.50;99.90;;;;;;5068920;28;20197;-68
2024/01/28 02:05:52;;;;;;;5.03;1.13;;;8.50;99.90;;;;;;5069661;28;20271;-68
2024/01/28 02:08:21;;;;;;;2.90;1.30;;;8.50;99.90;;;;;;5070582;28;20574;-67
2024/01/28 02:10:48;;;;;;;5.10;1.90;;;8.50;99.90;;;;;;5069927;28;20276;-68
2024/01/28 02:13:17;;;;;;;2.87;1.27;;;8.50;99.90;;;;;;5062530;28;20261;-68
2024/01/28 02:15:44;;;;;;;3.03;1.57;;;8.50;99.90;;;;;;5070066;28;20204;-68
2024/01/28 02:18:11;;;;;;;4.73;1.47;;;8.50;99.90;;;;;;5069848;28;20326;-68
2024/01/28 02:20:38;;;;;;;1.87;1.20;;;8.50;99.90;;;;;;5070181;28;20233;-68
2024/01/28 02:23:05;;;;;;;1.03;0.93;;;8.50;99.90;;;;;;5071990;28;20241;-68
2024/01/28 02:25:34;;;;;;;3.57;1.17;;;8.50;99.90;;;;;;5069067;28;20193;-68
2024/01/28 02:28:01;;;;;;;5.90;1.53;;;8.50;99.90;;;;;;5069290;28;20662;-68
2024/01/28 02:30:28;;;;;;;2.40;1.10;;;8.50;99.90;;;;;;5068109;28;20265;-68
2024/01/28 02:32:55;;;;;;;1.83;1.17;;;8.50;99.90;;;;;;5068750;28;20229;-68
2024/01/28 02:35:22;;;;;;;3.13;1.30;;;8.60;99.90;;;;;;5069992;28;20733;-68
2024/01/28 02:37:49;;;;;;;3.23;1.27;;;8.60;99.90;;;;;;5069919;28;20281;-68
2024/01/28 02:40:16;;;;;;;4.60;1.50;;;8.60;99.90;;;;;;5070464;28;20219;-68
2024/01/28 02:42:44;;;;;;;6.03;1.60;;;8.70;99.90;;;;;;5047505;28;20232;-68
2024/01/28 02:45:12;;;;;;;4.77;1.60;;;8.60;99.90;;;;;;5062717;28;20197;-68
2024/01/28 02:47:38;;;;;;;2.13;1.30;;;8.60;99.90;;;;;;5069360;28;20197;-68
2024/01/28 02:50:07;;;;;;;3.53;1.37;;;8.60;99.90;;;;;;5069985;28;20665;-68
2024/01/28 02:52:34;;;;;;;4.83;1.67;;;8.60;99.90;;;;;;5069319;28;20198;-68
2024/01/28 02:55:01;;;;;;;3.43;1.80;;;8.60;99.90;;;;;;5069479;28;20225;-68
2024/01/28 02:57:28;;;;;;;2.07;1.30;;;8.60;99.90;;;;;;5069093;28;20244;-68
2024/01/28 02:59:57;;;;;;;5.50;1.67;;;8.60;99.90;;;;;;5069690;28;20205;-68
2024/01/28 03:02:24;;;;;;;4.90;1.60;;;8.60;99.90;;;;;;5066983;28;20228;-68
2024/01/28 03:04:51;;;;;;;5.90;1.50;;;8.60;99.90;;;;;;5066034;28;20276;-68
2024/01/28 03:07:18;;;;;;;3.43;1.50;;;8.50;99.90;;;;;;5069683;28;20199;-67
2024/01/28 03:09:45;;;;;;;5.57;1.60;;;8.50;99.90;;;;;;5067553;28;20216;-68
2024/01/28 03:12:12;;;;;;;6.03;1.50;;;8.50;99.90;;;;;;5067908;28;20196;-68
2024/01/28 03:14:39;;;;;;;6.03;1.33;;;8.50;99.90;;;;;;5066615;28;20204;-67
2024/01/28 03:17:08;;;;;;;5.67;1.60;;;8.50;99.90;;;;;;5065848;28;20209;-67
2024/01/28 03:19:35;;;;;;;7.73;1.77;;;8.50;99.90;;;;;;5069599;28;20718;-68
2024/01/28 03:22:03;;;;;;;4.60;1.30;;;8.50;99.90;;;;;;5068806;28;20236;-67
2024/01/28 03:24:30;;;;;;;11.47;2.40;;;8.50;99.90;;;;;;5068160;28;20203;-67
2024/01/28 03:26:57;;;;;;;4.87;1.50;;;8.50;99.90;;;;;;5066714;28;20271;-67
2024/01/28 03:29:24;;;;;;;4.00;1.20;;;8.60;99.90;;;;;;5069251;28;20200;-68
2024/01/28 03:31:51;;;;;;;2.47;1.10;;;8.60;99.90;;;;;;5069109;28;20654;-68
2024/01/28 03:34:19;;;;;;;4.07;1.27;;;8.60;99.90;;;;;;5068445;28;20265;-67
2024/01/28 03:36:46;;;;;;;2.57;1.40;;;8.60;99.90;;;;;;5067949;28;20607;-67
2024/01/28 03:39:15;;;;;;;1.90;1.00;;;8.60;99.90;;;;;;5069426;28;20200;-68
2024/01/28 03:41:42;;;;;;;5.03;1.70;;;8.60;99.90;;;;;;5068383;28;20219;-68
2024/01/28 03:44:09;;;;;;;3.57;1.20;;;8.60;99.90;;;;;;5059072;28;20665;-67
2024/01/28 03:46:38;;;;;;;6.67;1.80;;;8.60;99.90;;;;;;5064293;28;20267;-67
2024/01/28 03:49:05;;;;;;;3.93;1.40;;;8.60;99.90;;;;;;5068583;28;20203;-69
2024/01/28 03:51:34;;;;;;;2.30;1.20;;;8.60;99.90;;;;;;5069055;28;20262;-70
2024/01/28 03:54:01;;;;;;;2.00;0.97;;;8.60;99.90;;;;;;5059862;28;20199;-69
2024/01/28 03:56:28;;;;;;;2.83;1.00;;;8.60;99.90;;;;;;5082928;28;20290;-69
2024/01/28 03:58:55;;;;;;;3.77;1.30;;;8.60;99.90;;;;;;5068661;28;20193;-69
2024/01/28 04:01:31;;;;;;;4.27;1.23;;;8.60;99.90;;;;;;5067416;28;20229;-69
2024/01/28 04:03:58;;;;;;;3.57;1.30;;;8.60;99.90;;;;;;5075858;28;20190;-69
2024/01/28 04:06:25;;;;;;;2.00;0.93;;;8.60;99.90;;;;;;5081225;28;20590;-69
2024/01/28 04:08:55;;;;;;;4.10;1.23;;;8.50;99.90;;;;;;5073187;28;20712;-69
2024/01/28 04:11:25;;;;;;;5.93;1.40;;;8.60;99.90;;;;;;5072674;28;20196;-68
2024/01/28 04:13:53;;;;;;;3.77;1.37;;;8.60;99.90;;;;;;5071487;28;20198;-69
2024/01/28 04:16:21;;;;;;;3.33;1.40;;;8.60;99.90;;;;;;5071361;28;20244;-69
2024/01/28 04:18:48;;;;;;;2.33;1.17;;;8.60;99.90;;;;;;5072331;28;20733;-68
2024/01/28 04:21:15;;;;;;;1.43;1.10;;;8.60;99.90;;;;;;5072784;28;20739;-68
2024/01/28 04:23:43;;;;;;;4.43;1.30;;;8.60;99.90;;;;;;5071786;28;20216;-68
2024/01/28 04:26:12;;;;;;;3.00;1.20;;;8.60;99.90;;;;;;5071180;28;20193;-66
2024/01/28 04:28:40;;;;;;;3.87;1.30;;;8.60;99.90;;;;;;5071288;28;20189;-66
2024/01/28 04:31:08;;;;;;;1.60;1.27;;;8.60;99.90;;;;;;5069685;28;20190;-67
2024/01/28 04:33:35;;;;;;;8.03;1.80;;;8.60;99.90;;;;;;5072297;28;20189;-67
2024/01/28 04:36:02;;;;;;;3.90;1.30;;;8.60;99.90;;;;;;5064263;28;20569;-67
2024/01/28 04:38:29;;;;;;;3.13;1.30;;;8.60;99.90;;;;;;5071303;28;20264;-67
2024/01/28 04:40:56;;;;;;;4.90;1.60;;;8.50;99.90;;;;;;5072707;28;20213;-68
2024/01/28 04:43:24;;;;;;;4.17;1.10;;;8.60;99.90;;;;;;5071735;28;20202;-68
2024/01/28 04:45:51;;;;;;;3.90;1.20;;;8.50;99.90;;;;;;5070938;28;20265;-67
2024/01/28 04:48:19;;;;;;;4.60;1.23;;;8.50;99.90;;;;;;5071705;28;20292;-68
2024/01/28 04:50:46;;;;;;;4.23;1.30;;;8.50;99.90;;;;;;5072422;28;20216;-68
2024/01/28 04:53:13;;;;;;;1.20;0.90;;;8.50;99.90;;;;;;5072198;28;20204;-68
2024/01/28 04:55:40;;;;;;;1.73;0.80;;;8.50;99.90;;;;;;5070608;28;20205;-68
2024/01/28 04:58:07;;;;;;;5.70;1.60;;;8.50;99.90;;;;;;5071197;28;20193;-68
2024/01/28 05:00:35;;;;;;;2.07;0.90;;;8.50;99.90;;;;;;5065244;28;20559;-67
2024/01/28 05:03:02;;;;;;;1.17;1.00;;;8.50;99.90;;;;;;5063574;28;20256;-68
2024/01/28 05:05:29;;;;;;;1.90;0.90;;;8.50;99.90;;;;;;5067488;28;20244;-67
2024/01/28 05:07:56;;;;;;;4.47;1.70;;;8.50;99.90;;;;;;5071909;28;20216;-67
2024/01/28 05:10:23;;;;;;;4.63;1.43;;;8.50;99.90;;;;;;5072184;28;20193;-67
2024/01/28 05:12:50;;;;;;;1.83;1.10;;;8.50;99.90;;;;;;5070469;28;20198;-68
2024/01/28 05:15:17;;;;;;;5.23;1.40;;;8.50;99.90;;;;;;5070993;28;20202;-68
2024/01/28 05:17:46;;;;;;;3.20;1.40;;;8.60;99.90;;;;;;5069877;28;20204;-67
2024/01/28 05:20:14;;;;;;;4.13;1.73;;;8.50;99.90;;;;;;5070764;28;20254;-67
2024/01/28 05:22:41;;;;;;;6.73;1.87;;;8.60;99.90;;;;;;5071742;28;20197;-69
2024/01/28 05:25:09;;;;;;;2.80;1.10;;;8.60;99.90;;;;;;5072148;28;20197;-67
2024/01/28 05:27:37;;;;;;;4.03;1.60;;;8.50;99.90;;;;;;5070195;28;20200;-67
2024/01/28 05:30:06;;;;;;;8.10;1.60;;;8.50;99.90;;;;;;5072020;28;20198;-68
2024/01/28 05:32:33;;;;;;;2.47;1.20;;;8.50;99.90;;;;;;5070137;28;20564;-67
2024/01/28 05:35:03;;;;;;;3.23;1.30;;;8.50;99.90;;;;;;5070631;28;20198;-67
2024/01/28 05:37:30;;;;;;;5.20;1.60;;;8.50;99.90;;;;;;5071107;28;20203;-67
2024/01/28 05:39:57;;;;;;;3.23;1.00;;;8.50;99.90;;;;;;5072181;28;20204;-67
2024/01/28 05:42:24;;;;;;;1.97;0.97;;;8.40;99.90;;;;;;5070062;28;20239;-67
2024/01/28 05:44:51;;;;;;;1.07;0.67;;;8.40;99.90;;;;;;5068628;28;20282;-67
2024/01/28 05:47:19;;;;;;;1.60;0.97;;;8.40;99.90;;;;;;5069675;28;20632;-68
2024/01/28 05:49:46;;;;;;;1.53;0.80;;;8.30;99.90;;;;;;5071615;28;20203;-68
2024/01/28 05:52:15;;;;;;;2.13;0.77;;;8.40;99.90;;;;;;5070751;28;20591;-68
2024/01/28 05:54:42;;;;;;;2.30;0.90;;;8.40;99.90;;;;;;5071440;28;20185;-68
2024/01/28 05:57:09;;;;;;;3.43;1.20;;;8.40;99.90;;;;;;5069278;28;20285;-67
2024/01/28 05:59:36;;;;;;;2.50;1.10;;;8.50;99.90;;;;;;5070577;28;20247;-67
2024/01/28 06:02:04;;;;;;;2.30;1.07;;;8.50;99.90;;;;;;5085405;28;20774;-67
2024/01/28 06:04:31;;;;;;;1.23;0.60;;;8.50;99.90;;;;;;5070820;28;20201;-68
2024/01/28 06:06:59;;;;;;;2.30;1.00;;;8.50;99.90;;;;;;5068444;28;20224;-68
2024/01/28 06:09:27;;;;;;;3.00;0.70;;;8.50;99.90;;;;;;5070918;28;20279;-68
2024/01/28 06:11:54;;;;;;;0.60;0.60;;;8.50;99.90;;;;;;5069746;28;20255;-68
2024/01/28 06:14:23;;;;;;;1.80;0.80;;;8.50;99.90;;;;;;5070029;28;20189;-68
2024/01/28 06:16:51;;;;;;;2.50;0.90;;;8.50;99.90;;;;;;5069341;28;20644;-68
2024/01/28 06:19:18;;;;;;;0.60;0.50;;;8.50;99.90;;;;;;5070154;28;20535;-68
2024/01/28 06:21:45;;;;;;;2.47;1.10;;;8.50;99.90;;;;;;5070315;28;20221;-68
2024/01/28 06:24:12;;;;;;;1.60;0.80;;;8.50;99.90;;;;;;5070068;28;20268;-68
2024/01/28 06:26:40;;;;;;;1.23;0.77;;;8.50;99.90;;;;;;5069590;28;20221;-68
2024/01/28 06:29:08;;;;;;;1.83;0.80;;;8.50;99.90;;;;;;5069622;28;20302;-68
2024/01/28 06:31:35;;;;;;;1.60;1.00;;;8.50;99.90;;;;;;5069703;28;20197;-68
2024/01/28 06:34:02;;;;;;;1.67;0.60;;;8.50;99.90;;;;;;5068968;28;20640;-68
2024/01/28 06:36:29;;;;;;;1.33;0.80;;;8.40;99.90;;;;;;5069268;28;20284;-68
2024/01/28 06:38:57;;;;;;;1.37;0.77;;;8.40;99.90;;;;;;5068830;28;20210;-68
2024/01/28 06:41:24;;;;;;;3.60;0.90;;;8.40;99.90;;;;;;5069545;28;20199;-68
2024/01/28 06:43:53;;;;;;;3.20;1.00;;;8.60;99.90;;;;;;5068397;28;20190;-68
2024/01/28 06:46:20;;;;;;;2.10;1.27;;;8.40;99.90;;;;;;5067451;28;20304;-68
2024/01/28 06:48:47;;;;;;;2.67;1.07;;;8.40;99.90;;;;;;5069433;28;20231;-68
2024/01/28 06:51:14;;;;;;;1.03;0.90;;;8.40;99.90;;;;;;5069123;28;20269;-69
2024/01/28 06:53:41;;;;;;;4.20;1.00;;;8.40;99.90;;;;;;5069624;28;20193;-68
2024/01/28 06:56:08;;;;;;;2.70;1.10;;;8.40;99.90;;;;;;5068599;28;20285;-68
2024/01/28 06:58:36;;;;;;;2.83;1.00;;;8.40;99.90;;;;;;5069321;28;20194;-68
2024/01/28 07:01:05;;;;;;;2.97;1.23;;;8.40;99.90;;;;;;5069441;28;20202;-68
2024/01/28 07:03:31;;;;;;;2.50;1.30;;;8.40;99.90;;;;;;5067499;28;20198;-68
2024/01/28 07:05:58;;;;;;;6.57;1.80;;;8.40;99.90;;;;;;5069001;28;20197;-68
2024/01/28 07:08:25;;;;;;;4.80;1.40;;;8.40;99.90;;;;;;5070025;28;20201;-68
2024/01/28 07:10:52;;;;;;;1.83;1.13;;;8.40;99.90;;;;;;5069845;28;20251;-67
2024/01/28 07:13:20;;;;;;;2.03;0.90;;;8.40;99.90;;;;;;5066602;28;20292;-68
2024/01/28 07:15:47;;;;;;;2.10;1.30;;;8.50;99.90;;;;;;5067189;28;20229;-67
2024/01/28 07:18:15;;;;;;;2.03;1.03;;;8.40;99.90;;;;;;5068837;28;20224;-67
2024/01/28 07:20:42;;;;;;;3.83;1.83;;;8.40;99.90;;;;;;5065994;28;20456;-67
2024/01/28 07:23:09;;;;;;;6.80;2.30;;;8.50;99.90;;;;;;5062786;28;20262;-67
2024/01/28 07:25:36;;;;;;;4.07;1.63;;;8.50;99.90;;;;;;5065019;28;20197;-68
2024/01/28 07:28:04;;;;;;;4.57;1.23;;;8.50;99.90;;;;;;5061515;28;20303;-67
2024/01/28 07:30:31;;;;;;;4.57;1.73;;;8.50;99.90;;;;;;5063985;28;20193;-69
2024/01/28 07:32:58;;;;;;;2.43;1.23;;;8.50;99.90;;;;;;5067658;28;20217;-68
2024/01/28 07:35:27;;;;;;;4.57;1.13;;;8.50;99.90;;;;;;5067903;28;20245;-68
2024/01/28 07:37:54;;;;;;;2.83;1.50;;;8.50;99.90;;;;;;5068133;28;20248;-68
2024/01/28 07:40:21;;;;;;;0.97;0.93;;;8.50;99.90;;;;;;5069371;28;20259;-68
2024/01/28 07:42:49;;;;;;;1.93;1.10;;;8.50;99.90;;;;;;5063869;28;20209;-69
2024/01/28 07:45:16;;;;;;;5.27;1.10;;;8.50;99.90;;;;;;5067948;28;20572;-69
2024/01/28 07:47:43;;;;;;;3.70;1.50;;;8.40;99.90;;;;;;5054630;28;20617;-68
2024/01/28 07:50:11;;;;;;;5.67;1.20;;;8.40;99.90;;;;;;5068884;28;20209;-69
2024/01/28 07:52:40;;;;;;;3.63;1.37;;;8.50;99.90;;;;;;5063936;28;20190;-68
2024/01/28 07:55:08;;;;;;;3.57;1.40;;;8.50;99.90;;;;;;5069314;28;20275;-68
2024/01/28 07:57:35;;;;;;;3.03;1.23;;;8.50;99.90;;;;;;5066122;28;20276;-68
2024/01/28 08:00:04;;;;;;;1.13;1.00;;;8.50;99.90;;;;;;5061958;28;20209;-68
2024/01/28 08:02:39;;;;;;;5.37;1.43;;;8.50;99.90;;;;;;5060590;28;20224;-68
2024/01/28 08:05:06;;;;;;;1.53;1.10;;;8.50;99.90;;;;;;5066616;28;20207;-68
2024/01/28 08:07:33;;;;;;;1.77;1.00;;;8.50;99.90;;;;;;5067568;28;20201;-68
2024/01/28 08:10:03;;;;;;;3.43;1.30;;;8.60;99.90;;;;;;5068782;28;20208;-67
2024/01/28 08:12:30;;;;;;;2.00;1.07;;;8.60;99.90;;;;;;5068175;28;20278;-67
2024/01/28 08:14:57;;;;;;;1.73;1.00;;;8.60;99.90;;;;;;5068919;28;20676;-69
2024/01/28 08:17:24;;;;;;;1.80;1.00;;;8.60;99.90;;;;;;5066703;28;20280;-69
2024/01/28 08:19:51;;;;;;;2.40;1.30;;;8.60;99.90;;;;;;5059501;28;20193;-70
2024/01/28 08:22:18;;;;;;;1.73;1.20;;;8.60;99.90;;;;;;5060648;28;20220;-68
2024/01/28 08:24:45;;;;;;;3.40;1.23;;;8.60;99.90;;;;;;5061909;28;20212;-69
2024/01/28 08:27:15;;;;;;;2.87;1.50;;;8.60;99.90;;;;;;5067736;28;20680;-69
2024/01/28 08:29:42;;;;;;;6.17;1.50;;;8.60;99.90;;;;;;5069716;28;20726;-68
2024/01/28 08:32:10;;;;;;;3.67;1.40;;;8.60;99.90;;;;;;5062901;28;20207;-68
2024/01/28 08:34:37;;;;;;;4.73;1.77;;;8.60;99.90;;;;;;5068563;28;20568;-68
2024/01/28 08:37:04;;;;;;;3.27;1.33;;;8.60;99.90;;;;;;5062107;28;20297;-68
2024/01/28 08:39:31;;;;;;;1.60;1.37;;;8.70;99.90;;;;;;5068498;28;20816;-69
2024/01/28 08:41:59;;;;;;;3.03;1.53;;;8.70;99.90;;;;;;5061615;28;20203;-68
2024/01/28 08:44:28;;;;;;;3.73;1.50;;;8.80;99.90;;;;;;5068780;28;20301;-68
2024/01/28 08:46:55;;;;;;;5.47;1.70;;;8.80;99.90;;;;;;5067688;28;20967;-69
2024/01/28 08:49:22;;;;;;;2.60;1.37;;;8.80;99.90;;;;;;5067875;28;20252;-68
2024/01/28 08:51:49;;;;;;;1.83;1.20;;;8.80;99.90;;;;;;5072340;28;20192;-69
2024/01/28 08:54:16;;;;;;;2.70;1.47;;;8.80;99.90;;;;;;5071707;28;20221;-68
2024/01/28 08:56:43;;;;;;;3.87;1.80;;;8.80;99.90;;;;;;5071507;28;20199;-68
2024/01/28 08:59:11;;;;;;;4.27;1.73;;;8.90;99.90;;;;;;5072855;28;20203;-69
2024/01/28 09:01:40;;;;;;;5.57;2.20;;;8.90;99.90;;;;;;5071680;28;20236;-69
2024/01/28 09:04:07;;;;;;;3.53;1.80;;;8.90;99.90;;;;;;5061896;28;20226;-68
2024/01/28 09:06:35;;;;;;;7.50;2.53;;;9.00;99.90;;;;;;5066906;28;20273;-69
2024/01/28 09:09:07;;;;;;;4.77;2.03;;;8.90;99.90;;;;;;5064233;28;20195;-69
2024/01/28 09:11:34;;;;;;;4.67;1.80;;;8.90;99.90;;;;;;5073332;28;20234;-69
2024/01/28 09:14:01;;;;;;;7.23;2.10;;;8.90;99.90;;;;;;5071115;28;20554;-67
2024/01/28 09:16:29;;;;;;;3.50;1.80;;;8.90;99.90;;;;;;5068525;28;20260;-67
2024/01/28 09:18:57;;;;;;;6.63;2.00;;;9.00;99.90;;;;;;5068595;28;20242;-67
2024/01/28 09:21:24;;;;;;;4.77;1.80;;;9.00;99.90;;;;;;5070786;28;20219;-68
2024/01/28 09:23:51;;;;;;;5.10;1.50;;;9.20;99.90;;;;;;5069603;28;20251;-68
2024/01/28 09:26:18;;;;;;;4.37;1.23;;;9.30;99.90;;;;;;5065481;28;20361;-69
2024/01/28 09:28:45;;;;;;;2.23;1.27;;;9.50;99.90;;;;;;5069401;28;20198;-69
2024/01/28 09:31:13;;;;;;;2.63;1.53;;;9.60;99.90;;;;;;5065518;28;20230;-68
2024/01/28 09:33:40;;;;;;;3.40;1.47;;;9.70;99.90;;;;;;5069078;28;20191;-69
2024/01/28 09:36:09;;;;;;;3.10;1.30;;;9.70;99.90;;;;;;5072093;28;20230;-67
2024/01/28 09:38:36;;;;;;;2.17;1.53;;;9.70;99.90;;;;;;5067155;28;20197;-67
2024/01/28 09:41:11;;;;;;;3.40;1.57;;;9.70;99.90;;;;;;5064418;28;20278;-69
2024/01/28 09:43:39;;;;;;;2.73;1.50;;;9.70;99.90;;;;;;5064166;28;20276;-69
2024/01/28 09:46:09;;;;;;;4.40;1.80;;;9.50;99.90;;;;;;5070541;28;20214;-69
2024/01/28 09:48:37;;;;;;;3.40;1.70;;;9.50;99.90;;;;;;5070790;28;20193;-70
2024/01/28 09:51:04;;;;;;;3.03;1.50;;;9.50;99.90;;;;;;5071342;28;20198;-69
2024/01/28 09:53:32;;;;;;;2.17;1.23;;;9.50;99.90;;;;;;5064627;28;20196;-69
2024/01/28 09:56:00;;;;;;;3.87;1.67;;;9.50;99.90;;;;;;5069946;28;20276;-68
2024/01/28 09:58:27;;;;;;;1.97;1.57;;;9.40;99.90;;;;;;5068903;28;20227;-69
2024/01/28 10:00:54;;;;;;;3.37;1.40;;;9.40;99.90;;;;;;5067207;28;20354;-68
2024/01/28 10:03:22;;;;;;;4.40;1.60;;;9.40;99.90;;;;;;5067722;28;20215;-68
2024/01/28 10:05:49;;;;;;;4.00;1.87;;;9.50;99.90;;;;;;5067338;28;20191;-68
2024/01/28 10:08:16;;;;;;;6.20;1.60;;;9.70;99.90;;;;;;5068663;28;20230;-68
2024/01/28 10:10:46;;;;;;;2.20;1.50;;;9.80;99.90;;;;;;5069552;28;20207;-68
2024/01/28 10:13:14;;;;;;;4.87;1.70;;;9.90;99.90;;;;;;5083949;28;20213;-67
2024/01/28 10:15:42;;;;;;;5.03;1.97;;;10.10;99.90;;;;;;5054810;28;20200;-68
2024/01/28 10:18:09;;;;;;;3.37;1.73;;;10.30;99.90;;;;;;5060160;28;20279;-68
2024/01/28 10:20:36;;;;;;;3.43;1.30;;;10.50;99.90;;;;;;5058636;28;20713;-69
2024/01/28 10:23:03;;;;;;;4.27;1.50;;;10.70;99.90;;;;;;5065211;28;20208;-69
2024/01/28 10:25:31;;;;;;;2.67;1.60;;;10.80;99.90;;;;;;5064627;28;20202;-69
2024/01/28 10:28:01;;;;;;;3.00;1.40;;;10.70;99.90;;;;;;5064442;28;20215;-69
2024/01/28 10:30:28;;;;;;;2.73;1.50;;;10.50;99.90;;;;;;5066141;28;20220;-67
2024/01/28 10:32:55;;;;;;;6.07;1.63;;;10.30;99.90;;;;;;5067114;28;20206;-68
2024/01/28 10:35:24;;;;;;;5.33;1.60;;;10.10;99.90;;;;;;5065556;28;20216;-69
2024/01/28 10:37:53;;;;;;;3.80;1.53;;;10.00;99.90;;;;;;5065334;28;20227;-68
2024/01/28 10:40:21;;;;;;;2.50;1.50;;;9.90;99.90;;;;;;5065832;28;20227;-69
2024/01/28 10:42:51;;;;;;;2.23;1.30;;;9.80;99.90;;;;;;5066652;28;20196;-68
2024/01/28 10:45:22;;;;;;;3.87;1.33;;;9.70;99.90;;;;;;5061879;28;20575;-68
2024/01/28 10:47:53;;;;;;;1.70;1.30;;;9.70;99.90;;;;;;5066313;28;20569;-68
2024/01/28 10:50:21;;;;;;;3.33;1.20;;;9.70;99.90;;;;;;5065317;28;20930;-68
2024/01/28 10:52:49;;;;;;;3.37;1.50;;;9.60;99.90;;;;;;5067950;28;20655;-69
2024/01/28 10:55:17;;;;;;;2.27;1.37;;;9.60;99.90;;;;;;5064554;28;20212;-68
2024/01/28 10:57:45;;;;;;;2.87;1.50;;;9.60;99.90;;;;;;5064923;28;20207;-68
2024/01/28 11:00:20;;;;;;;5.87;1.90;;;9.60;99.90;;;;;;5066767;28;20201;-69
2024/01/28 11:02:50;;;;;;;2.47;1.50;;;9.60;99.90;;;;;;5066684;28;20887;-69
2024/01/28 11:05:18;;;;;;;3.97;1.70;;;9.50;99.90;;;;;;5067680;28;20283;-68
2024/01/28 11:07:45;;;;;;;3.37;1.63;;;9.40;99.90;;;;;;5061956;28;20303;-68
2024/01/28 11:10:12;;;;;;;3.83;1.83;;;9.40;99.90;;;;;;5060171;28;20195;-67
2024/01/28 11:12:40;;;;;;;4.00;1.37;;;9.30;99.90;;;;;;5061966;28;20201;-67
2024/01/28 11:15:13;;;;;;;6.20;1.87;;;9.30;99.90;;;;;;5060497;28;20196;-68
2024/01/28 11:17:40;;;;;;;2.40;1.50;;;9.30;99.90;;;;;;5062138;28;20232;-68
2024/01/28 11:20:10;;;;;;;4.53;1.30;;;9.30;99.90;;;;;;5067673;28;20275;-68
2024/01/28 11:22:48;;;;;;;3.27;1.20;;;9.30;99.90;;;;;;5059641;28;20252;-68
2024/01/28 11:25:19;;;;;;;2.10;1.30;;;9.30;99.90;;;;;;5063814;28;20217;-68
2024/01/28 11:27:47;;;;;;;5.20;1.60;;;9.30;99.90;;;;;;5067142;28;20713;-68
2024/01/28 11:30:15;;;;;;;4.10;1.70;;;9.30;99.90;;;;;;5059649;28;20300;-68
2024/01/28 11:32:43;;;;;;;3.83;1.70;;;9.30;99.90;;;;;;5061627;28;20207;-69
2024/01/28 11:35:11;;;;;;;4.93;1.73;;;9.30;99.90;;;;;;5063569;28;20216;-68
2024/01/28 11:37:44;;;;;;;4.67;1.97;;;9.30;99.90;;;;;;5067674;28;20221;-69
2024/01/28 11:40:23;;;;;;;2.73;1.83;;;9.30;99.90;;;;;;5060189;28;20302;-68
2024/01/28 11:42:53;;;;;;;4.50;1.63;;;9.30;99.90;;;;;;5067064;28;20666;-68
2024/01/28 11:45:21;;;;;;;2.40;1.63;;;9.40;99.90;;;;;;5066484;28;20208;-68
2024/01/28 11:47:48;;;;;;;2.57;1.80;;;9.40;99.90;;;;;;5065734;28;20275;-68
2024/01/28 11:50:17;;;;;;;2.23;1.27;;;9.40;99.90;;;;;;5060602;28;20221;-69
2024/01/28 11:52:44;;;;;;;3.33;1.70;;;9.30;99.90;;;;;;5063760;28;20550;-68
2024/01/28 11:55:13;;;;;;;4.07;1.63;;;9.30;99.90;;;;;;5063866;28;20274;-68
2024/01/28 11:57:41;;;;;;;4.47;1.60;;;9.40;99.90;;;;;;5065674;28;20208;-68
2024/01/28 12:00:10;;;;;;;2.03;1.50;;;9.40;99.90;;;;;;5058470;28;20202;-68
2024/01/28 12:02:38;;;;;;;2.73;1.60;;;9.50;99.90;;;;;;5058547;28;20297;-68
2024/01/28 12:05:06;;;;;;;1.77;1.20;;;9.60;99.90;;;;;;5064874;28;20578;-68
2024/01/28 12:07:37;;;;;;;2.03;1.33;;;9.70;99.90;;;;;;5063852;28;20698;-68
2024/01/28 12:10:09;;;;;;;1.33;1.03;;;9.80;99.90;;;;;;5049169;28;20208;-68
2024/01/28 12:12:37;;;;;;;3.50;1.53;;;9.80;99.90;;;;;;5081782;28;20574;-69
2024/01/28 12:15:05;;;;;;;2.80;1.40;;;10.00;99.90;;;;;;5053056;28;20193;-69
2024/01/28 12:17:35;;;;;;;1.67;1.27;;;10.00;99.90;;;;;;5066484;28;20323;-68
2024/01/28 12:20:03;;;;;;;2.63;1.47;;;10.10;99.90;;;;;;5063969;28;20196;-68
2024/01/28 12:22:37;;;;;;;1.47;1.30;;;10.00;99.90;;;;;;5064827;28;20204;-68
2024/01/28 12:25:09;;;;;;;3.80;1.50;;;10.00;99.90;;;;;;5070423;28;20287;-69
2024/01/28 12:27:36;;;;;;;2.43;1.13;;;9.90;99.90;;;;;;5065629;28;20200;-68
2024/01/28 12:30:04;;;;;;;2.20;1.30;;;9.90;99.90;;;;;;5065549;28;20204;-68
2024/01/28 12:32:31;;;;;;;4.30;1.23;;;9.90;99.90;;;;;;5069200;28;20631;-68
2024/01/28 12:35:03;;;;;;;1.47;1.00;;;9.90;99.90;;;;;;5070808;28;20189;-68
2024/01/28 12:37:30;;;;;;;1.23;1.03;;;9.90;99.90;;;;;;5070462;28;20204;-68
2024/01/28 12:39:59;;;;;;;3.73;1.40;;;9.80;99.90;;;;;;5064397;28;20211;-68
2024/01/28 12:42:27;;;;;;;3.43;1.50;;;9.80;99.90;;;;;;5069612;28;20216;-68
2024/01/28 12:44:54;;;;;;;2.10;1.27;;;9.80;99.90;;;;;;5065859;28;20240;-68
2024/01/28 12:47:21;;;;;;;3.03;1.37;;;9.80;99.90;;;;;;5070336;28;20204;-68
2024/01/28 12:49:48;;;;;;;3.67;1.40;;;9.70;99.90;;;;;;5070945;28;20193;-67
2024/01/28 12:52:15;;;;;;;2.50;1.37;;;9.80;99.90;;;;;;5071765;28;20196;-68
2024/01/28 12:54:42;;;;;;;3.00;1.47;;;9.70;99.90;;;;;;5072595;28;20227;-69
2024/01/28 12:57:11;;;;;;;2.33;0.87;;;9.70;99.90;;;;;;5055389;28;20829;-69